sensor_id;sensor_type;location;lat;lon;timestamp;temperature;humidity
28845;DHT22;15976;47.938;7.758;2023-02-28T00:00:18;4.10;47.90
28845;DHT22;15976;47.938;7.758;2023-02-28T00:02:54;4.10;48.00
28845;DHT22;15976;47.938;7.758;2023-02-28T00:10:54;4.10;48.10
28845;DHT22;15976;47.938;7.758;2023-02-28T00:13:21;4.10;48.10
28845;DHT22;15976;47.938;7.758;2023-02-28T00:16:01;4.10;48.20
28845;DHT22;15976;47.938;7.758;2023-02-28T00:18:29;4.10;48.20
28845;DHT22;15976;47.938;7.758;2023-02-28T00:20:58;4.10;48.30
28845;DHT22;15976;47.938;7.758;2023-02-28T00:23:25;4.10;48.30
28845;DHT22;15976;47.938;7.758;2023-02-28T00:25:53;4.20;48.30
28845;DHT22;15976;47.938;7.758;2023-02-28T00:28:21;4.20;48.30
28845;DHT22;15976;47.938;7.758;2023-02-28T00:30:48;4.20;48.40
28845;DHT22;15976;47.938;7.758;2023-02-28T00:33:16;4.10;48.40
28845;DHT22;15976;47.938;7.758;2023-02-28T00:35:43;4.10;48.40
28845;DHT22;15976;47.938;7.758;2023-02-28T00:38:30;4.10;48.50
28845;DHT22;15976;47.938;7.758;2023-02-28T00:46:40;4.10;48.70
28845;DHT22;15976;47.938;7.758;2023-02-28T00:49:07;4.00;48.60
28845;DHT22;15976;47.938;7.758;2023-02-28T00:51:50;4.00;48.80
28845;DHT22;15976;47.938;7.758;2023-02-28T00:54:19;4.00;48.80
28845;DHT22;15976;47.938;7.758;2023-02-28T01:01:06;3.90;49.00
28845;DHT22;15976;47.938;7.758;2023-02-28T01:03:33;3.80;49.00
28845;DHT22;15976;47.938;7.758;2023-02-28T01:06:00;3.80;49.10
28845;DHT22;15976;47.938;7.758;2023-02-28T01:08:27;3.80;49.20
28845;DHT22;15976;47.938;7.758;2023-02-28T01:10:54;3.80;49.30
28845;DHT22;15976;47.938;7.758;2023-02-28T01:13:21;3.80;49.30
28845;DHT22;15976;47.938;7.758;2023-02-28T01:15:52;3.80;49.30
28845;DHT22;15976;47.938;7.758;2023-02-28T01:18:21;3.90;49.40
28845;DHT22;15976;47.938;7.758;2023-02-28T01:20:49;3.80;49.40
28845;DHT22;15976;47.938;7.758;2023-02-28T01:23:16;3.80;49.40
28845;DHT22;15976;47.938;7.758;2023-02-28T01:25:43;3.80;49.40
28845;DHT22;15976;47.938;7.758;2023-02-28T01:28:10;3.80;49.50
28845;DHT22;15976;47.938;7.758;2023-02-28T01:30:37;3.80;49.50
28845;DHT22;15976;47.938;7.758;2023-02-28T01:33:05;3.80;49.60
28845;DHT22;15976;47.938;7.758;2023-02-28T01:35:36;3.80;49.70
28845;DHT22;15976;47.938;7.758;2023-02-28T01:38:03;3.80;49.70
28845;DHT22;15976;47.938;7.758;2023-02-28T01:40:49;3.80;49.70
28845;DHT22;15976;47.938;7.758;2023-02-28T01:43:26;3.80;49.70
28845;DHT22;15976;47.938;7.758;2023-02-28T01:45:55;3.90;49.80
28845;DHT22;15976;47.938;7.758;2023-02-28T01:48:37;3.90;49.80
28845;DHT22;15976;47.938;7.758;2023-02-28T01:51:15;3.80;49.80
28845;DHT22;15976;47.938;7.758;2023-02-28T01:53:52;3.80;49.80
28845;DHT22;15976;47.938;7.758;2023-02-28T01:56:26;3.80;49.90
28845;DHT22;15976;47.938;7.758;2023-02-28T01:58:54;3.80;49.90
28845;DHT22;15976;47.938;7.758;2023-02-28T02:01:24;3.80;50.00
28845;DHT22;15976;47.938;7.758;2023-02-28T02:03:59;3.70;49.90
28845;DHT22;15976;47.938;7.758;2023-02-28T02:06:47;3.70;50.00
28845;DHT22;15976;47.938;7.758;2023-02-28T02:09:14;3.70;50.10
28845;DHT22;15976;47.938;7.758;2023-02-28T02:11:44;3.70;50.10
28845;DHT22;15976;47.938;7.758;2023-02-28T02:15:09;3.70;50.10
28845;DHT22;15976;47.938;7.758;2023-02-28T02:17:47;3.70;50.10
28845;DHT22;15976;47.938;7.758;2023-02-28T02:28:54;3.70;50.90
28845;DHT22;15976;47.938;7.758;2023-02-28T02:34:38;3.60;50.30
28845;DHT22;15976;47.938;7.758;2023-02-28T02:40:14;3.60;50.40
28845;DHT22;15976;47.938;7.758;2023-02-28T02:43:00;3.60;50.50
28845;DHT22;15976;47.938;7.758;2023-02-28T02:45:45;3.50;50.60
28845;DHT22;15976;47.938;7.758;2023-02-28T02:48:16;3.50;50.70
28845;DHT22;15976;47.938;7.758;2023-02-28T02:50:46;3.40;50.90
28845;DHT22;15976;47.938;7.758;2023-02-28T02:53:18;3.50;51.00
28845;DHT22;15976;47.938;7.758;2023-02-28T02:55:50;3.50;51.00
28845;DHT22;15976;47.938;7.758;2023-02-28T02:58:31;3.40;51.00
28845;DHT22;15976;47.938;7.758;2023-02-28T03:01:01;3.40;51.20
28845;DHT22;15976;47.938;7.758;2023-02-28T03:03:31;3.30;51.20
28845;DHT22;15976;47.938;7.758;2023-02-28T03:06:04;3.30;51.30
28845;DHT22;15976;47.938;7.758;2023-02-28T03:09:55;3.30;51.50
28845;DHT22;15976;47.938;7.758;2023-02-28T03:12:49;3.20;51.60
28845;DHT22;15976;47.938;7.758;2023-02-28T03:15:27;3.20;51.80
28845;DHT22;15976;47.938;7.758;2023-02-28T03:18:10;3.20;51.90
28845;DHT22;15976;47.938;7.758;2023-02-28T03:21:29;3.10;52.00
28845;DHT22;15976;47.938;7.758;2023-02-28T03:26:36;3.00;52.30
28845;DHT22;15976;47.938;7.758;2023-02-28T03:30:01;3.00;52.50
28845;DHT22;15976;47.938;7.758;2023-02-28T03:33:15;3.00;52.80
28845;DHT22;15976;47.938;7.758;2023-02-28T03:36:13;2.90;52.80
28845;DHT22;15976;47.938;7.758;2023-02-28T03:38:54;2.90;52.90
28845;DHT22;15976;47.938;7.758;2023-02-28T03:42:27;2.90;52.90
28845;DHT22;15976;47.938;7.758;2023-02-28T03:50:03;2.90;52.90
28845;DHT22;15976;47.938;7.758;2023-02-28T03:53:34;2.80;53.00
28845;DHT22;15976;47.938;7.758;2023-02-28T03:56:07;2.80;53.10
28845;DHT22;15976;47.938;7.758;2023-02-28T04:01:37;2.90;53.40
28845;DHT22;15976;47.938;7.758;2023-02-28T04:04:05;2.90;53.40
28845;DHT22;15976;47.938;7.758;2023-02-28T04:06:34;2.90;53.40
28845;DHT22;15976;47.938;7.758;2023-02-28T04:09:02;3.00;53.50
28845;DHT22;15976;47.938;7.758;2023-02-28T04:11:46;3.00;53.50
28845;DHT22;15976;47.938;7.758;2023-02-28T04:14:16;2.90;53.60
28845;DHT22;15976;47.938;7.758;2023-02-28T04:16:43;2.90;53.70
28845;DHT22;15976;47.938;7.758;2023-02-28T04:19:11;2.90;53.80
28845;DHT22;15976;47.938;7.758;2023-02-28T04:21:42;2.90;54.10
28845;DHT22;15976;47.938;7.758;2023-02-28T04:24:11;2.90;54.20
28845;DHT22;15976;47.938;7.758;2023-02-28T04:26:42;2.90;54.30
28845;DHT22;15976;47.938;7.758;2023-02-28T04:29:18;2.90;54.40
28845;DHT22;15976;47.938;7.758;2023-02-28T04:31:45;2.90;54.40
28845;DHT22;15976;47.938;7.758;2023-02-28T04:34:13;2.90;54.60
28845;DHT22;15976;47.938;7.758;2023-02-28T04:36:40;2.90;54.70
28845;DHT22;15976;47.938;7.758;2023-02-28T04:39:07;2.80;54.90
28845;DHT22;15976;47.938;7.758;2023-02-28T04:41:36;2.90;55.20
28845;DHT22;15976;47.938;7.758;2023-02-28T04:44:03;2.80;55.30
28845;DHT22;15976;47.938;7.758;2023-02-28T04:46:30;2.80;55.50
28845;DHT22;15976;47.938;7.758;2023-02-28T04:48:57;2.80;55.70
28845;DHT22;15976;47.938;7.758;2023-02-28T04:51:25;2.80;55.80
28845;DHT22;15976;47.938;7.758;2023-02-28T04:53:52;2.80;56.00
28845;DHT22;15976;47.938;7.758;2023-02-28T04:56:19;2.90;56.10
28845;DHT22;15976;47.938;7.758;2023-02-28T04:58:47;2.90;56.20
28845;DHT22;15976;47.938;7.758;2023-02-28T05:01:22;2.90;56.20
28845;DHT22;15976;47.938;7.758;2023-02-28T05:03:50;2.90;56.40
28845;DHT22;15976;47.938;7.758;2023-02-28T05:06:19;2.90;56.50
28845;DHT22;15976;47.938;7.758;2023-02-28T05:08:47;2.90;56.50
28845;DHT22;15976;47.938;7.758;2023-02-28T05:13:49;2.90;56.50
28845;DHT22;15976;47.938;7.758;2023-02-28T05:16:17;3.00;56.70
28845;DHT22;15976;47.938;7.758;2023-02-28T05:18:44;3.00;56.70
28845;DHT22;15976;47.938;7.758;2023-02-28T05:32:53;3.00;57.40
28845;DHT22;15976;47.938;7.758;2023-02-28T05:35:20;3.00;57.70
28845;DHT22;15976;47.938;7.758;2023-02-28T05:37:47;3.00;58.10
28845;DHT22;15976;47.938;7.758;2023-02-28T05:40:15;3.00;58.40
28845;DHT22;15976;47.938;7.758;2023-02-28T05:43:16;3.00;58.60
28845;DHT22;15976;47.938;7.758;2023-02-28T05:46:51;3.00;58.80
28845;DHT22;15976;47.938;7.758;2023-02-28T05:49:18;3.10;58.60
28845;DHT22;15976;47.938;7.758;2023-02-28T05:51:44;3.00;58.80
28845;DHT22;15976;47.938;7.758;2023-02-28T05:54:12;3.00;59.00
28845;DHT22;15976;47.938;7.758;2023-02-28T05:57:12;3.00;59.40
28845;DHT22;15976;47.938;7.758;2023-02-28T06:04:09;3.00;60.40
28845;DHT22;15976;47.938;7.758;2023-02-28T06:06:51;2.90;60.60
28845;DHT22;15976;47.938;7.758;2023-02-28T06:09:18;2.90;61.10
28845;DHT22;15976;47.938;7.758;2023-02-28T06:11:46;2.80;61.50
28845;DHT22;15976;47.938;7.758;2023-02-28T06:14:19;2.80;61.70
28845;DHT22;15976;47.938;7.758;2023-02-28T06:16:46;2.80;62.00
28845;DHT22;15976;47.938;7.758;2023-02-28T06:19:13;2.80;62.20
28845;DHT22;15976;47.938;7.758;2023-02-28T06:21:42;2.80;62.40
28845;DHT22;15976;47.938;7.758;2023-02-28T06:24:09;2.80;62.50
28845;DHT22;15976;47.938;7.758;2023-02-28T06:26:36;2.80;63.30
28845;DHT22;15976;47.938;7.758;2023-02-28T06:29:03;2.70;62.50
28845;DHT22;15976;47.938;7.758;2023-02-28T06:31:30;2.80;62.60
28845;DHT22;15976;47.938;7.758;2023-02-28T06:33:58;2.80;62.80
28845;DHT22;15976;47.938;7.758;2023-02-28T06:36:32;2.70;62.70
28845;DHT22;15976;47.938;7.758;2023-02-28T06:40:54;2.70;62.70
28845;DHT22;15976;47.938;7.758;2023-02-28T06:43:24;2.70;62.70
28845;DHT22;15976;47.938;7.758;2023-02-28T06:45:54;2.70;62.70
28845;DHT22;15976;47.938;7.758;2023-02-28T06:48:22;2.70;62.70
28845;DHT22;15976;47.938;7.758;2023-02-28T06:50:49;2.70;62.70
28845;DHT22;15976;47.938;7.758;2023-02-28T06:53:16;2.70;62.70
28845;DHT22;15976;47.938;7.758;2023-02-28T06:55:43;2.70;62.70
28845;DHT22;15976;47.938;7.758;2023-02-28T06:58:10;2.70;62.80
28845;DHT22;15976;47.938;7.758;2023-02-28T07:00:42;2.80;62.70
28845;DHT22;15976;47.938;7.758;2023-02-28T07:03:11;2.70;62.70
28845;DHT22;15976;47.938;7.758;2023-02-28T07:05:39;2.70;62.70
28845;DHT22;15976;47.938;7.758;2023-02-28T07:08:06;2.80;62.80
28845;DHT22;15976;47.938;7.758;2023-02-28T07:10:33;2.80;62.90
28845;DHT22;15976;47.938;7.758;2023-02-28T07:13:00;2.80;62.90
28845;DHT22;15976;47.938;7.758;2023-02-28T07:15:28;2.80;62.90
28845;DHT22;15976;47.938;7.758;2023-02-28T07:18:01;2.80;63.00
28845;DHT22;15976;47.938;7.758;2023-02-28T07:20:28;2.80;62.90
28845;DHT22;15976;47.938;7.758;2023-02-28T07:22:54;2.80;62.90
28845;DHT22;15976;47.938;7.758;2023-02-28T07:25:25;2.90;62.90
28845;DHT22;15976;47.938;7.758;2023-02-28T07:27:54;2.90;62.80
28845;DHT22;15976;47.938;7.758;2023-02-28T07:30:21;3.00;62.80
28845;DHT22;15976;47.938;7.758;2023-02-28T07:32:49;3.00;62.70
28845;DHT22;15976;47.938;7.758;2023-02-28T07:35:17;3.10;62.70
28845;DHT22;15976;47.938;7.758;2023-02-28T07:37:45;3.10;62.50
28845;DHT22;15976;47.938;7.758;2023-02-28T07:40:14;3.10;62.30
28845;DHT22;15976;47.938;7.758;2023-02-28T07:42:41;3.20;62.20
28845;DHT22;15976;47.938;7.758;2023-02-28T07:45:10;3.30;62.00
28845;DHT22;15976;47.938;7.758;2023-02-28T07:47:38;3.30;61.80
28845;DHT22;15976;47.938;7.758;2023-02-28T07:50:08;3.50;61.70
28845;DHT22;15976;47.938;7.758;2023-02-28T07:52:37;3.50;61.10
28845;DHT22;15976;47.938;7.758;2023-02-28T07:55:05;3.70;61.10
28845;DHT22;15976;47.938;7.758;2023-02-28T07:57:33;3.80;60.70
28845;DHT22;15976;47.938;7.758;2023-02-28T08:00:00;3.80;60.50
28845;DHT22;15976;47.938;7.758;2023-02-28T08:02:37;3.90;60.40
28845;DHT22;15976;47.938;7.758;2023-02-28T08:05:14;4.20;60.20
28845;DHT22;15976;47.938;7.758;2023-02-28T08:09:22;4.60;59.30
28845;DHT22;15976;47.938;7.758;2023-02-28T08:34:42;4.40;57.90
28845;DHT22;15976;47.938;7.758;2023-02-28T08:41:29;4.40;57.80
28845;DHT22;15976;47.938;7.758;2023-02-28T08:44:27;4.50;57.70
28845;DHT22;15976;47.938;7.758;2023-02-28T08:49:11;4.50;57.40
28845;DHT22;15976;47.938;7.758;2023-02-28T08:57:18;4.60;57.30
28845;DHT22;15976;47.938;7.758;2023-02-28T08:59:45;4.90;56.90
28845;DHT22;15976;47.938;7.758;2023-02-28T09:02:15;5.10;56.60
28845;DHT22;15976;47.938;7.758;2023-02-28T09:04:41;5.20;56.30
28845;DHT22;15976;47.938;7.758;2023-02-28T09:07:08;5.40;56.00
28845;DHT22;15976;47.938;7.758;2023-02-28T09:09:35;5.40;55.80
28845;DHT22;15976;47.938;7.758;2023-02-28T09:12:03;5.50;55.70
28845;DHT22;15976;47.938;7.758;2023-02-28T09:14:30;5.50;55.60
28845;DHT22;15976;47.938;7.758;2023-02-28T09:16:58;5.60;55.40
28845;DHT22;15976;47.938;7.758;2023-02-28T09:19:25;5.80;55.10
28845;DHT22;15976;47.938;7.758;2023-02-28T09:21:52;5.80;54.80
28845;DHT22;15976;47.938;7.758;2023-02-28T09:24:19;5.90;54.80
28845;DHT22;15976;47.938;7.758;2023-02-28T09:26:47;5.90;54.60
28845;DHT22;15976;47.938;7.758;2023-02-28T09:29:29;6.00;54.40
28845;DHT22;15976;47.938;7.758;2023-02-28T09:31:56;5.90;54.30
28845;DHT22;15976;47.938;7.758;2023-02-28T09:34:26;5.80;54.40
28845;DHT22;15976;47.938;7.758;2023-02-28T09:36:53;5.70;54.40
28845;DHT22;15976;47.938;7.758;2023-02-28T09:39:22;5.70;54.40
28845;DHT22;15976;47.938;7.758;2023-02-28T09:41:54;5.80;54.30
28845;DHT22;15976;47.938;7.758;2023-02-28T09:44:40;6.00;54.10
28845;DHT22;15976;47.938;7.758;2023-02-28T09:47:30;6.30;53.60
28845;DHT22;15976;47.938;7.758;2023-02-28T09:50:22;6.50;53.10
28845;DHT22;15976;47.938;7.758;2023-02-28T09:52:50;6.70;52.60
28845;DHT22;15976;47.938;7.758;2023-02-28T09:55:33;6.70;52.50
28845;DHT22;15976;47.938;7.758;2023-02-28T09:58:26;6.90;52.40
28845;DHT22;15976;47.938;7.758;2023-02-28T10:01:12;7.00;51.80
28845;DHT22;15976;47.938;7.758;2023-02-28T10:06:21;7.00;51.20
28845;DHT22;15976;47.938;7.758;2023-02-28T10:08:56;7.10;51.20
28845;DHT22;15976;47.938;7.758;2023-02-28T10:11:25;7.20;50.90
28845;DHT22;15976;47.938;7.758;2023-02-28T10:14:01;7.20;50.60
28845;DHT22;15976;47.938;7.758;2023-02-28T10:19:44;7.30;50.20
28845;DHT22;15976;47.938;7.758;2023-02-28T10:22:57;7.40;50.00
28845;DHT22;15976;47.938;7.758;2023-02-28T10:25:25;7.50;49.70
28845;DHT22;15976;47.938;7.758;2023-02-28T10:28:08;7.50;49.50
28845;DHT22;15976;47.938;7.758;2023-02-28T10:30:45;7.50;49.30
28845;DHT22;15976;47.938;7.758;2023-02-28T10:33:24;7.50;49.20
28845;DHT22;15976;47.938;7.758;2023-02-28T10:35:51;7.60;49.20
28845;DHT22;15976;47.938;7.758;2023-02-28T10:38:25;7.70;49.10
28845;DHT22;15976;47.938;7.758;2023-02-28T10:41:08;7.70;48.80
28845;DHT22;15976;47.938;7.758;2023-02-28T10:43:37;7.80;48.60
28845;DHT22;15976;47.938;7.758;2023-02-28T10:46:12;7.80;48.50
28845;DHT22;15976;47.938;7.758;2023-02-28T10:48:50;8.00;48.60
28845;DHT22;15976;47.938;7.758;2023-02-28T10:51:24;8.10;48.50
28845;DHT22;15976;47.938;7.758;2023-02-28T10:53:52;8.30;48.20
28845;DHT22;15976;47.938;7.758;2023-02-28T10:56:29;8.50;47.80
28845;DHT22;15976;47.938;7.758;2023-02-28T11:01:50;8.50;47.30
28845;DHT22;15976;47.938;7.758;2023-02-28T11:07:01;8.40;47.20
28845;DHT22;15976;47.938;7.758;2023-02-28T11:09:34;8.30;47.20
28845;DHT22;15976;47.938;7.758;2023-02-28T11:15:26;8.20;47.30
28845;DHT22;15976;47.938;7.758;2023-02-28T11:17:59;8.20;47.30
28845;DHT22;15976;47.938;7.758;2023-02-28T11:20:29;8.20;47.30
28845;DHT22;15976;47.938;7.758;2023-02-28T11:22:58;8.30;47.40
28845;DHT22;15976;47.938;7.758;2023-02-28T11:25:31;8.30;47.20
28845;DHT22;15976;47.938;7.758;2023-02-28T11:28:04;8.30;47.10
28845;DHT22;15976;47.938;7.758;2023-02-28T11:30:39;8.30;47.00
28845;DHT22;15976;47.938;7.758;2023-02-28T11:36:15;8.40;46.80
28845;DHT22;15976;47.938;7.758;2023-02-28T11:38:45;8.60;46.70
28845;DHT22;15976;47.938;7.758;2023-02-28T11:47:00;8.70;46.30
28845;DHT22;15976;47.938;7.758;2023-02-28T11:52:33;8.80;46.30
28845;DHT22;15976;47.938;7.758;2023-02-28T12:00:45;9.00;46.00
28845;DHT22;15976;47.938;7.758;2023-02-28T12:23:45;8.80;46.00
28845;DHT22;15976;47.938;7.758;2023-02-28T12:29:30;8.60;46.20
28845;DHT22;15976;47.938;7.758;2023-02-28T12:32:06;8.60;46.80
28845;DHT22;15976;47.938;7.758;2023-02-28T12:34:49;8.70;46.30
28845;DHT22;15976;47.938;7.758;2023-02-28T12:37:29;8.80;46.20
28845;DHT22;15976;47.938;7.758;2023-02-28T12:40:02;8.80;46.20
28845;DHT22;15976;47.938;7.758;2023-02-28T12:42:39;8.80;46.00
28845;DHT22;15976;47.938;7.758;2023-02-28T12:47:38;8.90;46.00
28845;DHT22;15976;47.938;7.758;2023-02-28T12:50:10;9.00;45.90
28845;DHT22;15976;47.938;7.758;2023-02-28T12:52:46;9.10;45.80
28845;DHT22;15976;47.938;7.758;2023-02-28T12:55:23;9.10;45.60
28845;DHT22;15976;47.938;7.758;2023-02-28T13:00:38;9.20;45.70
28845;DHT22;15976;47.938;7.758;2023-02-28T13:11:32;9.40;45.20
28845;DHT22;15976;47.938;7.758;2023-02-28T13:14:16;9.40;45.10
28845;DHT22;15976;47.938;7.758;2023-02-28T13:16:56;9.40;45.10
28845;DHT22;15976;47.938;7.758;2023-02-28T13:19:26;9.40;45.30
28845;DHT22;15976;47.938;7.758;2023-02-28T13:21:54;9.40;45.10
28845;DHT22;15976;47.938;7.758;2023-02-28T13:24:38;9.40;44.90
28845;DHT22;15976;47.938;7.758;2023-02-28T13:29:41;9.40;45.00
28845;DHT22;15976;47.938;7.758;2023-02-28T13:47:44;9.30;45.30
28845;DHT22;15976;47.938;7.758;2023-02-28T13:55:28;9.30;45.20
28845;DHT22;15976;47.938;7.758;2023-02-28T14:08:53;9.30;45.50
28845;DHT22;15976;47.938;7.758;2023-02-28T14:11:27;9.30;45.50
28845;DHT22;15976;47.938;7.758;2023-02-28T14:13:55;9.30;45.70
28845;DHT22;15976;47.938;7.758;2023-02-28T14:16:34;9.30;45.70
28845;DHT22;15976;47.938;7.758;2023-02-28T14:19:25;9.20;45.70
28845;DHT22;15976;47.938;7.758;2023-02-28T14:36:35;8.90;46.10
28845;DHT22;15976;47.938;7.758;2023-02-28T14:39:16;8.80;46.20
28845;DHT22;15976;47.938;7.758;2023-02-28T14:41:46;9.00;46.30
28845;DHT22;15976;47.938;7.758;2023-02-28T14:44:26;9.00;46.20
28845;DHT22;15976;47.938;7.758;2023-02-28T14:46:55;8.90;46.10
28845;DHT22;15976;47.938;7.758;2023-02-28T14:49:29;8.90;46.10
28845;DHT22;15976;47.938;7.758;2023-02-28T14:54:37;8.90;46.10
28845;DHT22;15976;47.938;7.758;2023-02-28T14:57:05;8.90;46.00
28845;DHT22;15976;47.938;7.758;2023-02-28T14:59:35;8.80;46.20
28845;DHT22;15976;47.938;7.758;2023-02-28T15:02:23;8.80;46.20
28845;DHT22;15976;47.938;7.758;2023-02-28T15:04:58;8.80;46.30
28845;DHT22;15976;47.938;7.758;2023-02-28T15:07:26;8.80;46.40
28845;DHT22;15976;47.938;7.758;2023-02-28T15:10:23;8.80;46.60
28845;DHT22;15976;47.938;7.758;2023-02-28T15:12:57;8.80;46.40
28845;DHT22;15976;47.938;7.758;2023-02-28T15:20:49;8.60;46.40
28845;DHT22;15976;47.938;7.758;2023-02-28T15:23:18;8.50;46.50
28845;DHT22;15976;47.938;7.758;2023-02-28T15:25:46;8.40;46.80
28845;DHT22;15976;47.938;7.758;2023-02-28T15:28:19;8.40;47.00
28845;DHT22;15976;47.938;7.758;2023-02-28T15:30:54;8.40;47.00
28845;DHT22;15976;47.938;7.758;2023-02-28T15:33:27;8.30;47.10
28845;DHT22;15976;47.938;7.758;2023-02-28T15:36:12;8.30;47.20
28845;DHT22;15976;47.938;7.758;2023-02-28T15:38:40;8.20;47.20
28845;DHT22;15976;47.938;7.758;2023-02-28T15:41:26;8.20;47.40
28845;DHT22;15976;47.938;7.758;2023-02-28T15:44:14;8.10;47.50
28845;DHT22;15976;47.938;7.758;2023-02-28T15:47:03;8.00;47.60
28845;DHT22;15976;47.938;7.758;2023-02-28T15:49:59;7.90;47.70
28845;DHT22;15976;47.938;7.758;2023-02-28T15:52:41;7.80;47.80
28845;DHT22;15976;47.938;7.758;2023-02-28T15:55:20;7.80;48.00
28845;DHT22;15976;47.938;7.758;2023-02-28T15:57:51;7.80;48.10
28845;DHT22;15976;47.938;7.758;2023-02-28T16:00:21;7.60;48.20
28845;DHT22;15976;47.938;7.758;2023-02-28T16:02:50;7.70;48.40
28845;DHT22;15976;47.938;7.758;2023-02-28T16:05:31;7.60;48.50
28845;DHT22;15976;47.938;7.758;2023-02-28T16:08:01;7.60;48.50
28845;DHT22;15976;47.938;7.758;2023-02-28T16:10:33;7.60;48.60
28845;DHT22;15976;47.938;7.758;2023-02-28T16:13:04;7.60;48.60
28845;DHT22;15976;47.938;7.758;2023-02-28T16:15:35;7.50;48.60
28845;DHT22;15976;47.938;7.758;2023-02-28T16:18:12;7.40;48.80
28845;DHT22;15976;47.938;7.758;2023-02-28T16:20:40;7.30;48.80
28845;DHT22;15976;47.938;7.758;2023-02-28T16:23:07;7.30;49.10
28845;DHT22;15976;47.938;7.758;2023-02-28T16:25:40;7.20;49.20
28845;DHT22;15976;47.938;7.758;2023-02-28T16:28:23;7.10;49.30
28845;DHT22;15976;47.938;7.758;2023-02-28T16:30:52;6.90;49.30
28845;DHT22;15976;47.938;7.758;2023-02-28T16:33:19;6.80;49.40
28845;DHT22;15976;47.938;7.758;2023-02-28T16:35:46;6.60;49.60
28845;DHT22;15976;47.938;7.758;2023-02-28T16:38:13;6.50;49.90
28845;DHT22;15976;47.938;7.758;2023-02-28T16:40:41;6.50;50.10
28845;DHT22;15976;47.938;7.758;2023-02-28T16:43:14;6.40;50.20
28845;DHT22;15976;47.938;7.758;2023-02-28T16:45:42;6.30;50.30
28845;DHT22;15976;47.938;7.758;2023-02-28T16:48:15;6.30;50.40
28845;DHT22;15976;47.938;7.758;2023-02-28T16:50:42;6.30;50.50
28845;DHT22;15976;47.938;7.758;2023-02-28T16:53:12;6.20;50.60
28845;DHT22;15976;47.938;7.758;2023-02-28T16:55:40;6.20;50.80
28845;DHT22;15976;47.938;7.758;2023-02-28T16:58:13;6.10;50.90
28845;DHT22;15976;47.938;7.758;2023-02-28T17:00:41;6.10;51.10
28845;DHT22;15976;47.938;7.758;2023-02-28T17:03:21;6.00;51.20
28845;DHT22;15976;47.938;7.758;2023-02-28T17:05:58;5.90;51.30
28845;DHT22;15976;47.938;7.758;2023-02-28T17:08:29;5.90;51.60
28845;DHT22;15976;47.938;7.758;2023-02-28T17:10:56;5.90;51.70
28845;DHT22;15976;47.938;7.758;2023-02-28T17:13:23;5.80;51.80
28845;DHT22;15976;47.938;7.758;2023-02-28T17:15:51;5.80;52.10
28845;DHT22;15976;47.938;7.758;2023-02-28T17:18:19;5.70;52.10
28845;DHT22;15976;47.938;7.758;2023-02-28T17:20:48;5.70;52.20
28845;DHT22;15976;47.938;7.758;2023-02-28T17:23:15;5.60;52.30
28845;DHT22;15976;47.938;7.758;2023-02-28T17:25:43;5.50;52.40
28845;DHT22;15976;47.938;7.758;2023-02-28T17:28:23;5.50;52.60
28845;DHT22;15976;47.938;7.758;2023-02-28T17:30:50;5.40;52.90
28845;DHT22;15976;47.938;7.758;2023-02-28T17:33:17;5.40;53.30
28845;DHT22;15976;47.938;7.758;2023-02-28T17:35:44;5.40;53.40
28845;DHT22;15976;47.938;7.758;2023-02-28T17:38:21;5.30;53.40
28845;DHT22;15976;47.938;7.758;2023-02-28T17:40:49;5.20;53.40
28845;DHT22;15976;47.938;7.758;2023-02-28T17:43:16;5.20;53.50
28845;DHT22;15976;47.938;7.758;2023-02-28T17:45:43;5.10;53.50
28845;DHT22;15976;47.938;7.758;2023-02-28T17:48:11;5.10;53.60
28845;DHT22;15976;47.938;7.758;2023-02-28T17:50:39;5.10;53.70
28845;DHT22;15976;47.938;7.758;2023-02-28T17:53:06;5.10;53.80
28845;DHT22;15976;47.938;7.758;2023-02-28T17:55:35;5.00;53.80
28845;DHT22;15976;47.938;7.758;2023-02-28T17:58:03;5.00;54.00
28845;DHT22;15976;47.938;7.758;2023-02-28T18:00:30;5.00;54.10
28845;DHT22;15976;47.938;7.758;2023-02-28T18:03:00;4.90;54.30
28845;DHT22;15976;47.938;7.758;2023-02-28T18:05:27;4.90;54.50
28845;DHT22;15976;47.938;7.758;2023-02-28T18:07:54;4.90;54.60
28845;DHT22;15976;47.938;7.758;2023-02-28T18:10:22;4.80;54.60
28845;DHT22;15976;47.938;7.758;2023-02-28T18:12:51;4.80;54.60
28845;DHT22;15976;47.938;7.758;2023-02-28T18:15:20;4.70;54.60
28845;DHT22;15976;47.938;7.758;2023-02-28T18:17:48;4.70;54.60
28845;DHT22;15976;47.938;7.758;2023-02-28T18:20:16;4.70;54.60
28845;DHT22;15976;47.938;7.758;2023-02-28T18:22:44;4.70;54.60
28845;DHT22;15976;47.938;7.758;2023-02-28T18:25:11;4.70;54.70
28845;DHT22;15976;47.938;7.758;2023-02-28T18:27:44;4.60;54.70
28845;DHT22;15976;47.938;7.758;2023-02-28T18:30:20;4.60;54.70
28845;DHT22;15976;47.938;7.758;2023-02-28T18:32:48;4.60;54.80
28845;DHT22;15976;47.938;7.758;2023-02-28T18:35:15;4.60;54.80
28845;DHT22;15976;47.938;7.758;2023-02-28T18:37:42;4.60;55.00
28845;DHT22;15976;47.938;7.758;2023-02-28T18:40:10;4.60;55.10
28845;DHT22;15976;47.938;7.758;2023-02-28T18:42:37;4.50;55.00
28845;DHT22;15976;47.938;7.758;2023-02-28T18:45:05;4.60;55.00
28845;DHT22;15976;47.938;7.758;2023-02-28T18:47:34;4.50;55.00
28845;DHT22;15976;47.938;7.758;2023-02-28T18:50:01;4.50;55.00
28845;DHT22;15976;47.938;7.758;2023-02-28T18:52:28;4.50;55.10
28845;DHT22;15976;47.938;7.758;2023-02-28T18:54:56;4.50;55.20
28845;DHT22;15976;47.938;7.758;2023-02-28T18:57:25;4.40;55.20
28845;DHT22;15976;47.938;7.758;2023-02-28T18:59:52;4.40;55.30
28845;DHT22;15976;47.938;7.758;2023-02-28T19:02:19;4.40;55.30
28845;DHT22;15976;47.938;7.758;2023-02-28T19:04:46;4.40;55.30
28845;DHT22;15976;47.938;7.758;2023-02-28T19:07:13;4.40;55.40
28845;DHT22;15976;47.938;7.758;2023-02-28T19:09:51;4.40;55.40
28845;DHT22;15976;47.938;7.758;2023-02-28T19:13:06;4.40;55.50
28845;DHT22;15976;47.938;7.758;2023-02-28T19:15:39;4.30;55.40
28845;DHT22;15976;47.938;7.758;2023-02-28T19:18:06;4.30;55.50
28845;DHT22;15976;47.938;7.758;2023-02-28T19:20:34;4.30;55.50
28845;DHT22;15976;47.938;7.758;2023-02-28T19:23:01;4.30;55.50
28845;DHT22;15976;47.938;7.758;2023-02-28T19:25:28;4.30;55.60
28845;DHT22;15976;47.938;7.758;2023-02-28T19:27:56;4.30;55.60
28845;DHT22;15976;47.938;7.758;2023-02-28T19:30:23;4.20;55.60
28845;DHT22;15976;47.938;7.758;2023-02-28T19:32:51;4.20;55.60
28845;DHT22;15976;47.938;7.758;2023-02-28T19:35:18;4.20;55.60
28845;DHT22;15976;47.938;7.758;2023-02-28T19:37:46;4.20;55.60
28845;DHT22;15976;47.938;7.758;2023-02-28T19:40:13;4.20;55.60
28845;DHT22;15976;47.938;7.758;2023-02-28T19:42:40;4.20;55.70
28845;DHT22;15976;47.938;7.758;2023-02-28T19:45:07;4.20;55.80
28845;DHT22;15976;47.938;7.758;2023-02-28T19:47:35;4.20;55.80
28845;DHT22;15976;47.938;7.758;2023-02-28T19:50:04;4.10;55.80
28845;DHT22;15976;47.938;7.758;2023-02-28T19:52:33;4.10;55.90
28845;DHT22;15976;47.938;7.758;2023-02-28T19:55:00;4.10;56.00
28845;DHT22;15976;47.938;7.758;2023-02-28T19:57:27;4.10;56.20
28845;DHT22;15976;47.938;7.758;2023-02-28T19:59:58;4.10;56.30
28845;DHT22;15976;47.938;7.758;2023-02-28T20:03:19;4.00;56.50
28845;DHT22;15976;47.938;7.758;2023-02-28T20:05:47;4.00;57.10